createdAt,value
2023-05-20T00:02:04.902Z,15.29
2023-05-20T00:05:09.292Z,15.12
2023-05-20T00:08:13.524Z,15.02
2023-05-20T00:11:16.398Z,14.94
2023-05-20T00:14:19.144Z,14.87
2023-05-20T00:17:21.917Z,14.82
2023-05-20T00:20:25.863Z,14.77
2023-05-20T00:23:30.045Z,14.84
2023-05-20T00:26:32.773Z,14.82
2023-05-20T00:29:35.776Z,14.78
2023-05-20T00:32:38.569Z,14.70
2023-05-20T00:35:41.363Z,14.59
2023-05-20T00:38:45.560Z,14.57
2023-05-20T00:41:48.366Z,14.52
2023-05-20T00:44:51.490Z,14.48
2023-05-20T00:47:57.281Z,14.46
2023-05-20T00:51:01.130Z,14.28
2023-05-20T00:54:05.321Z,14.18
2023-05-20T00:57:09.301Z,14.11
2023-05-20T01:00:13.733Z,14.09
2023-05-20T01:03:17.077Z,14.02
2023-05-20T01:06:20.184Z,14.05
2023-05-20T01:13:48.828Z,13.82
2023-05-20T01:16:54.277Z,13.67
2023-05-20T01:19:57.273Z,13.62
2023-05-20T01:23:02.316Z,13.53
2023-05-20T01:26:06.521Z,13.47
2023-05-20T01:29:09.335Z,13.41
2023-05-20T01:32:13.692Z,13.36
2023-05-20T01:35:18.047Z,13.24
2023-05-20T01:38:24.410Z,13.34
2023-05-20T01:41:28.770Z,13.36
2023-05-20T01:44:31.939Z,13.30
2023-05-20T01:47:34.918Z,13.42
2023-05-20T01:50:37.645Z,13.46
2023-05-20T01:53:41.798Z,13.53
2023-05-20T01:56:46.757Z,13.60
2023-05-20T01:59:49.812Z,13.67
2023-05-20T02:02:52.990Z,13.71
2023-05-20T02:05:55.838Z,13.75
2023-05-20T02:09:00.366Z,13.84
2023-05-20T02:12:03.196Z,13.85
2023-05-20T02:15:07.409Z,13.91
2023-05-20T02:18:12.548Z,13.94
2023-05-20T02:21:15.357Z,13.95
2023-05-20T02:24:21.132Z,13.96
2023-05-20T02:27:23.876Z,13.99
2023-05-20T02:30:28.241Z,14.03
2023-05-20T02:33:30.998Z,14.02
2023-05-20T02:36:33.788Z,14.04
2023-05-20T02:39:37.890Z,14.04
2023-05-20T02:42:42.180Z,14.07
2023-05-20T02:45:45.170Z,14.06
2023-05-20T02:48:48.009Z,14.06
2023-05-20T02:51:50.946Z,14.09
2023-05-20T02:54:55.122Z,14.03
2023-05-20T02:57:57.953Z,14.13
2023-05-20T03:01:00.998Z,14.09
2023-05-20T03:04:04.718Z,14.11
2023-05-20T03:07:09.032Z,14.09
2023-05-20T03:10:13.566Z,14.09
2023-05-20T03:13:16.490Z,14.10
2023-05-20T03:16:19.356Z,14.09
2023-05-20T03:19:22.180Z,14.08
2023-05-20T03:22:24.973Z,14.09
2023-05-20T03:25:29.636Z,14.10
2023-05-20T03:28:54.676Z,14.12
2023-05-20T03:31:57.391Z,14.13
2023-05-20T03:35:00.192Z,14.13
2023-05-20T03:38:03.167Z,14.16
2023-05-20T03:41:07.285Z,14.17
2023-05-20T03:44:09.989Z,14.16
2023-05-20T03:47:12.740Z,14.16
2023-05-20T03:50:15.587Z,14.19
2023-05-20T03:53:20.221Z,14.15
2023-05-20T03:56:24.644Z,14.14
2023-05-20T03:59:27.373Z,14.14
2023-05-20T04:02:30.965Z,14.14
2023-05-20T04:05:34.415Z,14.17
2023-05-20T04:08:37.651Z,14.16
2023-05-20T04:11:41.714Z,14.19
2023-05-20T04:14:44.413Z,14.20
2023-05-20T04:17:48.564Z,14.23
2023-05-20T04:20:56.516Z,14.26
2023-05-20T04:23:59.281Z,14.30
2023-05-20T04:27:03.438Z,14.34
2023-05-20T04:30:08.082Z,14.38
2023-05-20T04:33:11.260Z,14.39
2023-05-20T04:36:16.604Z,14.37
2023-05-20T04:39:20.605Z,14.47
2023-05-20T04:42:24.839Z,14.53
2023-05-20T04:45:27.719Z,14.59
2023-05-20T04:48:30.473Z,14.64
2023-05-20T04:51:34.207Z,14.67
2023-05-20T04:54:36.966Z,14.69
2023-05-20T04:57:42.213Z,14.72
2023-05-20T05:00:46.067Z,14.79
2023-05-20T05:03:48.763Z,14.79
2023-05-20T05:06:52.030Z,14.85
2023-05-20T05:09:54.787Z,14.92
2023-05-20T05:12:58.904Z,14.97
2023-05-20T05:16:02.455Z,15.00
2023-05-20T05:19:05.299Z,15.03
2023-05-20T05:22:08.089Z,15.07
2023-05-20T05:25:12.076Z,15.13
2023-05-20T05:28:16.134Z,15.18
2023-05-20T05:31:18.950Z,15.25
2023-05-20T05:34:22.502Z,15.34
2023-05-20T05:37:25.397Z,15.47
2023-05-20T05:40:28.427Z,15.69
2023-05-20T05:43:32.669Z,16.18
2023-05-20T05:46:35.799Z,16.91
2023-05-20T05:49:38.579Z,17.55
2023-05-20T05:52:41.426Z,17.61
2023-05-20T05:55:44.126Z,17.52
2023-05-20T05:58:48.693Z,18.20
2023-05-20T06:01:51.458Z,18.74
2023-05-20T06:04:54.524Z,18.63
2023-05-20T06:07:57.555Z,18.18
2023-05-20T06:11:00.256Z,18.71
2023-05-20T06:14:05.081Z,19.76
2023-05-20T06:17:08.022Z,19.93
2023-05-20T06:20:11.496Z,19.80
2023-05-20T06:23:14.332Z,19.79
2023-05-20T06:26:17.194Z,19.79
2023-05-20T06:29:21.710Z,20.06
2023-05-20T06:32:24.461Z,19.99
2023-05-20T06:35:27.271Z,19.90
2023-05-20T06:38:30.049Z,20.01
2023-05-20T06:41:32.819Z,20.18
2023-05-20T06:44:37.002Z,20.18
2023-05-20T06:47:39.889Z,20.34
2023-05-20T06:50:42.688Z,20.46
2023-05-20T06:53:45.583Z,20.61
2023-05-20T06:56:48.811Z,21.03
2023-05-20T06:59:53.058Z,21.61
2023-05-20T07:02:56.158Z,21.79
2023-05-20T07:05:59.175Z,21.88
2023-05-20T07:09:02.181Z,21.66
2023-05-20T07:12:05.318Z,21.48
2023-05-20T07:15:10.719Z,21.21
2023-05-20T07:18:13.599Z,21.65
2023-05-20T07:21:16.530Z,21.56
2023-05-20T07:24:21.667Z,21.51
2023-05-20T07:27:24.530Z,21.43
2023-05-20T07:30:29.034Z,21.37
2023-05-20T07:33:34.737Z,21.11
2023-05-20T07:36:38.302Z,21.08
2023-05-20T07:39:41.290Z,21.18
2023-05-20T07:42:44.133Z,21.23
2023-05-20T07:45:48.620Z,21.43
2023-05-20T07:48:51.908Z,21.46
2023-05-20T07:51:54.633Z,20.88
2023-05-20T07:54:57.355Z,20.52
2023-05-20T07:58:00.114Z,20.87
2023-05-20T08:01:04.210Z,20.62
2023-05-20T08:04:07.026Z,20.15
2023-05-20T08:07:09.905Z,19.77
2023-05-20T08:10:13.675Z,19.33
2023-05-20T08:13:16.438Z,19.47
2023-05-20T08:16:22.428Z,19.37
2023-05-20T08:19:25.358Z,19.22
2023-05-20T08:22:28.257Z,18.99
2023-05-20T08:25:31.280Z,18.89
2023-05-20T08:28:34.298Z,19.03
2023-05-20T08:31:38.521Z,19.05
2023-05-20T08:34:42.786Z,19.16
2023-05-20T08:37:45.505Z,19.39
2023-05-20T08:40:53.100Z,19.42
2023-05-20T08:43:56.134Z,19.54
2023-05-20T08:47:00.638Z,19.60
2023-05-20T08:50:04.038Z,19.62
2023-05-20T08:53:07.329Z,19.65
2023-05-20T08:56:12.709Z,19.56
2023-05-20T08:59:16.138Z,19.56
2023-05-20T09:02:20.146Z,19.51
2023-05-20T09:05:23.650Z,19.71
2023-05-20T09:08:27.297Z,19.65
2023-05-20T09:11:31.071Z,19.60
2023-05-20T09:14:33.744Z,19.58
2023-05-20T09:17:38.551Z,19.52
2023-05-20T09:20:41.863Z,19.57
2023-05-20T09:23:49.105Z,19.54
2023-05-20T09:26:52.263Z,19.69
2023-05-20T09:29:55.179Z,19.86
2023-05-20T09:33:01.115Z,19.96
2023-05-20T09:36:05.890Z,19.84
2023-05-20T09:39:10.801Z,20.02
2023-05-20T09:42:19.344Z,19.94
2023-05-20T09:45:23.278Z,19.97
2023-05-20T09:48:28.534Z,19.81
2023-05-20T09:51:32.401Z,20.06
2023-05-20T09:54:37.493Z,20.22
2023-05-20T09:57:40.266Z,20.20
2023-05-20T10:00:43.106Z,20.19
2023-05-20T10:03:47.503Z,20.59
2023-05-20T10:07:30.574Z,20.55
2023-05-20T10:10:48.536Z,20.72
2023-05-20T10:14:09.035Z,21.09
2023-05-20T10:17:18.437Z,21.19
2023-05-20T10:20:23.052Z,21.10
2023-05-20T10:23:29.744Z,21.16
2023-05-20T10:26:36.570Z,21.43
2023-05-20T10:32:56.871Z,21.69
2023-05-20T10:36:03.010Z,22.15
2023-05-20T10:39:05.854Z,22.15
2023-05-20T10:42:09.469Z,22.14
2023-05-20T10:45:13.243Z,22.15
2023-05-20T10:48:22.424Z,21.96
2023-05-20T10:51:29.604Z,21.79
2023-05-20T10:54:37.017Z,21.65
2023-05-20T10:57:39.834Z,21.49
2023-05-20T11:00:45.031Z,21.56
2023-05-20T11:03:48.459Z,21.79
2023-05-20T11:06:54.206Z,21.76
2023-05-20T11:09:57.523Z,21.88
2023-05-20T11:13:02.166Z,22.04
2023-05-20T11:16:06.894Z,22.06
2023-05-20T11:19:10.338Z,22.22
2023-05-20T11:22:14.679Z,22.30
2023-05-20T11:25:18.798Z,22.32
2023-05-20T11:28:22.732Z,22.29
2023-05-20T11:31:26.929Z,22.47
2023-05-20T11:34:35.333Z,22.65
2023-05-20T11:37:39.394Z,22.53
2023-05-20T11:40:52.784Z,22.58
2023-05-20T11:43:59.529Z,22.72
2023-05-20T11:47:03.760Z,22.88
2023-05-20T11:50:10.650Z,22.79
2023-05-20T11:53:17.797Z,22.88
2023-05-20T11:56:21.601Z,22.93
2023-05-20T11:59:28.279Z,23.05
2023-05-20T12:02:31.484Z,23.10
2023-05-20T12:05:34.333Z,22.99
2023-05-20T12:08:38.481Z,23.15
2023-05-20T12:11:42.030Z,23.39
2023-05-20T12:14:45.455Z,23.56
2023-05-20T12:17:49.992Z,23.45
2023-05-20T12:20:52.809Z,23.76
2023-05-20T12:23:58.164Z,23.67
2023-05-20T12:27:01.133Z,23.53
2023-05-20T12:30:04.553Z,23.38
2023-05-20T12:33:07.634Z,23.77
2023-05-20T12:36:10.546Z,24.09
2023-05-20T12:39:15.128Z,23.91
2023-05-20T12:42:17.858Z,23.92
2023-05-20T12:45:20.544Z,23.95
2023-05-20T12:48:23.848Z,23.74
2023-05-20T12:51:26.958Z,23.66
2023-05-20T12:54:31.441Z,23.57
2023-05-20T12:57:34.173Z,23.81
2023-05-20T13:00:37.433Z,23.94
2023-05-20T13:03:40.416Z,24.22
2023-05-20T13:06:43.926Z,24.27
2023-05-20T13:09:47.959Z,24.05
2023-05-20T13:12:51.026Z,24.35
2023-05-20T13:15:53.729Z,24.26
2023-05-20T13:18:56.708Z,24.31
2023-05-20T13:21:59.505Z,23.93
2023-05-20T13:25:04.398Z,23.77
2023-05-20T13:28:07.641Z,23.93
2023-05-20T13:31:12.462Z,23.89
2023-05-20T13:34:15.264Z,24.09
2023-05-20T13:37:18.036Z,24.44
2023-05-20T13:40:22.491Z,24.49
2023-05-20T13:43:25.834Z,24.26
2023-05-20T13:46:28.562Z,24.16
2023-05-20T13:49:31.925Z,23.96
2023-05-20T13:52:34.699Z,23.78
2023-05-20T13:55:38.863Z,24.01
2023-05-20T13:58:42.135Z,24.22
2023-05-20T14:01:45.841Z,24.12
2023-05-20T14:04:48.893Z,24.27
2023-05-20T14:07:52.058Z,24.62
2023-05-20T14:10:56.179Z,24.85
2023-05-20T14:13:59.168Z,24.96
2023-05-20T14:17:02.043Z,24.67
2023-05-20T14:20:07.042Z,24.40
2023-05-20T14:23:09.945Z,24.53
2023-05-20T14:26:14.618Z,24.27
2023-05-20T14:29:17.749Z,24.23
2023-05-20T14:32:20.541Z,24.10
2023-05-20T14:35:23.986Z,24.17
2023-05-20T14:38:27.504Z,24.25
2023-05-20T14:41:31.939Z,24.37
2023-05-20T14:44:34.832Z,24.64
2023-05-20T14:47:40.085Z,24.65
2023-05-20T14:50:43.119Z,24.74
2023-05-20T14:53:46.000Z,25.16
2023-05-20T14:56:50.084Z,25.07
2023-05-20T14:59:53.308Z,24.92
2023-05-20T15:02:56.077Z,24.69
2023-05-20T15:05:59.198Z,24.64
2023-05-20T15:09:01.971Z,24.37
2023-05-20T15:12:07.132Z,24.42
2023-05-20T15:15:10.871Z,24.33
2023-05-20T15:18:14.238Z,24.37
2023-05-20T15:21:17.968Z,24.34
2023-05-20T15:24:20.948Z,24.26
2023-05-20T15:27:25.462Z,24.51
2023-05-20T15:30:28.180Z,24.45
2023-05-20T15:33:30.995Z,24.59
2023-05-20T15:36:33.844Z,24.65
2023-05-20T15:39:38.335Z,24.37
2023-05-20T15:42:42.492Z,24.30
2023-05-20T15:45:46.021Z,24.26
2023-05-20T15:48:48.861Z,24.32
2023-05-20T15:52:02.339Z,24.38
2023-05-20T15:55:09.725Z,24.31
2023-05-20T15:58:14.146Z,24.04
2023-05-20T16:01:17.482Z,24.06
2023-05-20T16:04:20.788Z,24.10
2023-05-20T16:07:23.779Z,24.02
2023-05-20T16:10:32.649Z,24.02
2023-05-20T16:13:37.745Z,24.17
2023-05-20T16:16:40.835Z,24.03
2023-05-20T16:19:43.630Z,23.94
2023-05-20T16:22:46.896Z,24.06
2023-05-20T16:25:49.592Z,24.00
2023-05-20T16:28:53.767Z,23.89
2023-05-20T16:31:57.151Z,23.89
2023-05-20T16:35:00.062Z,23.77
2023-05-20T16:38:03.092Z,23.90
2023-05-20T16:41:06.045Z,23.98
2023-05-20T16:44:10.350Z,23.75
2023-05-20T16:47:13.396Z,23.57
2023-05-20T16:50:16.142Z,23.54
2023-05-20T16:53:18.930Z,23.51
2023-05-20T16:56:22.997Z,23.45
2023-05-20T16:59:30.084Z,23.36
2023-05-20T17:02:32.857Z,23.41
2023-05-20T17:05:35.624Z,23.42
2023-05-20T17:08:39.109Z,23.40
2023-05-20T17:11:41.820Z,23.25
2023-05-20T17:14:46.061Z,23.38
2023-05-20T17:17:48.779Z,23.62
2023-05-20T17:20:51.739Z,23.56
2023-05-20T17:23:55.017Z,23.57
2023-05-20T17:26:57.753Z,23.51
2023-05-20T17:30:02.313Z,23.45
2023-05-20T17:33:05.080Z,23.43
2023-05-20T17:36:08.315Z,23.61
2023-05-20T17:39:11.071Z,23.65
2023-05-20T17:42:13.947Z,23.56
2023-05-20T17:45:18.101Z,23.50
2023-05-20T17:48:21.105Z,23.38
2023-05-20T17:51:23.980Z,23.27
2023-05-20T17:54:26.974Z,23.25
2023-05-20T17:57:29.732Z,23.15
2023-05-20T18:00:43.138Z,23.25
2023-05-20T18:03:46.259Z,23.10
2023-05-20T18:06:49.122Z,22.94
2023-05-20T18:09:51.868Z,22.97
2023-05-20T18:12:54.554Z,22.92
2023-05-20T18:15:58.709Z,22.69
2023-05-20T18:19:02.736Z,22.64
2023-05-20T18:22:07.210Z,22.43
2023-05-20T18:25:11.615Z,22.43
2023-05-20T18:28:14.321Z,22.18
2023-05-20T18:31:18.562Z,22.28
2023-05-20T18:34:21.334Z,22.21
2023-05-20T18:37:24.145Z,21.96
2023-05-20T18:40:28.127Z,21.87
2023-05-20T18:43:30.972Z,21.82
2023-05-20T18:46:35.199Z,21.82
2023-05-20T18:49:37.966Z,21.66
2023-05-20T18:52:40.779Z,21.67
2023-05-20T18:55:43.614Z,21.72
2023-05-20T18:58:46.373Z,21.60
2023-05-20T19:01:50.510Z,21.54
2023-05-20T19:04:53.180Z,21.29
2023-05-20T19:07:56.162Z,21.16
2023-05-20T19:10:59.014Z,20.93
2023-05-20T19:14:01.993Z,21.01
2023-05-20T19:17:06.688Z,20.90
2023-05-20T19:20:10.488Z,20.75
2023-05-20T19:23:13.226Z,20.69
2023-05-20T19:26:16.034Z,20.53
2023-05-20T19:29:18.737Z,20.43
2023-05-20T19:32:22.818Z,20.34
2023-05-20T19:35:25.627Z,20.22
2023-05-20T19:38:28.438Z,20.13
2023-05-20T19:41:31.743Z,20.06
2023-05-20T19:44:34.478Z,19.96
2023-05-20T19:47:39.023Z,19.89
2023-05-20T19:50:41.910Z,19.87
2023-05-20T19:53:44.732Z,19.74
2023-05-20T19:56:47.507Z,19.67
2023-05-20T19:59:52.292Z,19.59
2023-05-20T20:02:57.962Z,19.52
2023-05-20T20:06:00.970Z,19.47
2023-05-20T20:09:04.831Z,19.40
2023-05-20T20:12:09.276Z,19.39
2023-05-20T20:15:12.499Z,19.28
2023-05-20T20:18:17.220Z,19.21
2023-05-20T20:21:20.151Z,19.27
2023-05-20T20:24:24.117Z,19.04
2023-05-20T20:27:26.984Z,18.95
2023-05-20T20:30:29.737Z,18.90
2023-05-20T20:33:33.815Z,18.88
2023-05-20T20:36:36.772Z,18.83
2023-05-20T20:39:39.488Z,18.80
2023-05-20T20:42:44.951Z,18.75
2023-05-20T20:45:47.827Z,18.55
2023-05-20T20:48:51.961Z,18.65
2023-05-20T20:51:57.136Z,18.55
2023-05-20T20:55:00.267Z,18.47
2023-05-20T20:58:05.255Z,18.40
2023-05-20T21:01:10.076Z,18.42
2023-05-20T21:04:14.529Z,18.35
2023-05-20T21:07:18.494Z,18.30
2023-05-20T21:10:21.295Z,18.29
2023-05-20T21:13:24.055Z,18.26
2023-05-20T21:16:26.751Z,18.21
2023-05-20T21:19:30.917Z,18.16
2023-05-20T21:22:33.827Z,18.11
2023-05-20T21:25:36.834Z,18.00
2023-05-20T21:28:39.826Z,18.03
2023-05-20T21:31:42.592Z,18.00
2023-05-20T21:34:46.690Z,17.95
2023-05-20T21:37:49.937Z,17.72
2023-05-20T21:40:52.702Z,17.87
2023-05-20T21:43:55.487Z,17.82
2023-05-20T21:46:58.294Z,17.82
2023-05-20T21:50:03.321Z,17.79
2023-05-20T21:53:06.320Z,17.75
2023-05-20T21:56:09.084Z,17.72
2023-05-20T21:59:11.858Z,17.69
2023-05-20T22:02:14.567Z,17.63
2023-05-20T22:05:19.759Z,17.59
2023-05-20T22:08:22.682Z,17.58
2023-05-20T22:11:26.380Z,17.54
2023-05-20T22:14:29.543Z,17.57
2023-05-20T22:17:34.073Z,17.51
2023-05-20T22:20:38.519Z,17.49
2023-05-20T22:23:41.373Z,17.45
2023-05-20T22:26:44.325Z,17.41
2023-05-20T22:29:47.434Z,17.36
2023-05-20T22:32:50.376Z,17.34
2023-05-20T22:35:54.570Z,17.26
2023-05-20T22:38:57.752Z,17.22
2023-05-20T22:42:00.556Z,17.17
2023-05-20T22:45:04.369Z,17.14
2023-05-20T22:48:07.239Z,17.11
2023-05-20T22:51:11.611Z,17.09
2023-05-20T22:54:14.467Z,17.01
2023-05-20T22:57:17.369Z,16.96
2023-05-20T23:00:20.166Z,16.94
2023-05-20T23:03:23.399Z,16.91
2023-05-20T23:06:27.588Z,16.83
2023-05-20T23:09:30.289Z,16.78
2023-05-20T23:12:33.097Z,16.73
2023-05-20T23:15:36.715Z,16.68
2023-05-20T23:18:40.002Z,16.65
2023-05-20T23:21:44.146Z,16.62
2023-05-20T23:24:46.873Z,16.60
2023-05-20T23:27:49.632Z,16.54
2023-05-20T23:30:52.449Z,16.56
2023-05-20T23:33:57.875Z,16.53
2023-05-20T23:37:02.384Z,16.50
2023-05-20T23:40:09.072Z,16.50
2023-05-20T23:43:11.790Z,16.50
2023-05-20T23:46:14.597Z,16.52
2023-05-20T23:49:18.427Z,16.55
2023-05-20T23:52:22.530Z,16.57
2023-05-20T23:55:25.616Z,16.57
2023-05-20T23:58:28.321Z,16.57
